sensor_id;sensor_type;location;lat;lon;timestamp;temperature;humidity
44170;DHT22;29836;52.286;9.576;2022-12-07T00:02:04;3.20;99.90
44170;DHT22;29836;52.286;9.576;2022-12-07T00:04:30;3.20;99.90
44170;DHT22;29836;52.286;9.576;2022-12-07T00:06:55;3.30;99.90
44170;DHT22;29836;52.286;9.576;2022-12-07T00:09:21;3.20;99.90
44170;DHT22;29836;52.286;9.576;2022-12-07T00:11:49;3.30;99.90
44170;DHT22;29836;52.286;9.576;2022-12-07T00:14:16;3.30;99.90
44170;DHT22;29836;52.286;9.576;2022-12-07T00:16:43;3.30;99.90
44170;DHT22;29836;52.286;9.576;2022-12-07T00:19:10;3.30;99.90
44170;DHT22;29836;52.286;9.576;2022-12-07T00:21:36;3.30;99.90
44170;DHT22;29836;52.286;9.576;2022-12-07T00:24:03;3.20;99.90
44170;DHT22;29836;52.286;9.576;2022-12-07T00:26:34;3.20;99.90
44170;DHT22;29836;52.286;9.576;2022-12-07T00:29:03;3.20;99.90
44170;DHT22;29836;52.286;9.576;2022-12-07T00:31:32;3.20;99.90
44170;DHT22;29836;52.286;9.576;2022-12-07T00:33:59;3.20;99.90
44170;DHT22;29836;52.286;9.576;2022-12-07T00:36:25;3.20;99.90
44170;DHT22;29836;52.286;9.576;2022-12-07T00:38:51;3.20;99.90
44170;DHT22;29836;52.286;9.576;2022-12-07T00:41:19;3.20;99.90
44170;DHT22;29836;52.286;9.576;2022-12-07T00:43:46;3.30;99.90
44170;DHT22;29836;52.286;9.576;2022-12-07T00:46:12;3.40;99.90
44170;DHT22;29836;52.286;9.576;2022-12-07T00:48:38;3.30;99.90
44170;DHT22;29836;52.286;9.576;2022-12-07T00:51:04;3.30;99.90
44170;DHT22;29836;52.286;9.576;2022-12-07T00:53:31;3.30;99.90
44170;DHT22;29836;52.286;9.576;2022-12-07T00:56:07;3.30;99.90
44170;DHT22;29836;52.286;9.576;2022-12-07T00:58:33;3.40;99.90
44170;DHT22;29836;52.286;9.576;2022-12-07T01:01:03;3.40;99.90
44170;DHT22;29836;52.286;9.576;2022-12-07T01:03:29;3.40;99.90
44170;DHT22;29836;52.286;9.576;2022-12-07T01:05:55;3.40;99.90
44170;DHT22;29836;52.286;9.576;2022-12-07T01:08:22;3.40;99.90
44170;DHT22;29836;52.286;9.576;2022-12-07T01:10:49;3.40;99.90
44170;DHT22;29836;52.286;9.576;2022-12-07T01:13:14;3.40;99.90
44170;DHT22;29836;52.286;9.576;2022-12-07T01:15:42;3.40;99.90
44170;DHT22;29836;52.286;9.576;2022-12-07T01:18:07;3.40;99.90
44170;DHT22;29836;52.286;9.576;2022-12-07T01:20:33;3.40;99.90
44170;DHT22;29836;52.286;9.576;2022-12-07T01:22:59;3.50;99.90
44170;DHT22;29836;52.286;9.576;2022-12-07T01:25:25;3.50;99.90
44170;DHT22;29836;52.286;9.576;2022-12-07T01:27:50;3.50;99.90
44170;DHT22;29836;52.286;9.576;2022-12-07T01:30:16;3.60;99.90
44170;DHT22;29836;52.286;9.576;2022-12-07T01:32:41;3.60;99.90
44170;DHT22;29836;52.286;9.576;2022-12-07T01:35:07;3.60;99.90
44170;DHT22;29836;52.286;9.576;2022-12-07T01:37:37;3.60;99.90
44170;DHT22;29836;52.286;9.576;2022-12-07T01:40:05;3.60;99.90
44170;DHT22;29836;52.286;9.576;2022-12-07T01:42:31;3.60;99.90
44170;DHT22;29836;52.286;9.576;2022-12-07T01:47:47;3.60;99.90
44170;DHT22;29836;52.286;9.576;2022-12-07T01:50:14;3.70;99.90
44170;DHT22;29836;52.286;9.576;2022-12-07T01:52:41;3.70;99.90
44170;DHT22;29836;52.286;9.576;2022-12-07T01:55:12;3.80;99.90
44170;DHT22;29836;52.286;9.576;2022-12-07T01:57:45;3.80;99.90
44170;DHT22;29836;52.286;9.576;2022-12-07T02:00:11;3.80;99.90
44170;DHT22;29836;52.286;9.576;2022-12-07T02:02:44;3.80;99.90
44170;DHT22;29836;52.286;9.576;2022-12-07T02:05:10;3.80;99.90
44170;DHT22;29836;52.286;9.576;2022-12-07T02:07:38;3.80;99.90
44170;DHT22;29836;52.286;9.576;2022-12-07T02:10:28;3.90;99.90
44170;DHT22;29836;52.286;9.576;2022-12-07T02:13:06;3.90;99.90
44170;DHT22;29836;52.286;9.576;2022-12-07T02:23:46;3.60;99.90
44170;DHT22;29836;52.286;9.576;2022-12-07T02:26:23;3.50;99.90
44170;DHT22;29836;52.286;9.576;2022-12-07T02:29:12;3.40;99.90
44170;DHT22;29836;52.286;9.576;2022-12-07T02:31:45;3.20;99.90
44170;DHT22;29836;52.286;9.576;2022-12-07T02:34:18;3.10;99.90
44170;DHT22;29836;52.286;9.576;2022-12-07T02:36:52;3.00;99.90
44170;DHT22;29836;52.286;9.576;2022-12-07T02:42:15;2.80;99.90
44170;DHT22;29836;52.286;9.576;2022-12-07T02:44:43;2.80;99.90
44170;DHT22;29836;52.286;9.576;2022-12-07T02:47:13;2.70;99.90
44170;DHT22;29836;52.286;9.576;2022-12-07T02:49:40;2.60;99.90
44170;DHT22;29836;52.286;9.576;2022-12-07T02:52:07;2.50;99.90
44170;DHT22;29836;52.286;9.576;2022-12-07T02:54:32;2.40;99.90
44170;DHT22;29836;52.286;9.576;2022-12-07T02:57:32;2.40;99.90
44170;DHT22;29836;52.286;9.576;2022-12-07T03:00:12;2.40;99.90
44170;DHT22;29836;52.286;9.576;2022-12-07T03:03:02;2.50;99.90
44170;DHT22;29836;52.286;9.576;2022-12-07T03:08:30;2.40;99.90
44170;DHT22;29836;52.286;9.576;2022-12-07T03:11:08;2.40;99.90
44170;DHT22;29836;52.286;9.576;2022-12-07T03:13:50;2.40;99.90
44170;DHT22;29836;52.286;9.576;2022-12-07T03:16:37;2.40;99.90
44170;DHT22;29836;52.286;9.576;2022-12-07T03:19:09;2.40;99.90
44170;DHT22;29836;52.286;9.576;2022-12-07T03:21:42;2.40;99.90
44170;DHT22;29836;52.286;9.576;2022-12-07T03:24:17;2.50;99.90
44170;DHT22;29836;52.286;9.576;2022-12-07T03:26:50;2.50;99.90
44170;DHT22;29836;52.286;9.576;2022-12-07T03:29:22;2.60;99.90
44170;DHT22;29836;52.286;9.576;2022-12-07T03:31:55;2.70;99.90
44170;DHT22;29836;52.286;9.576;2022-12-07T03:34:32;2.60;99.90
44170;DHT22;29836;52.286;9.576;2022-12-07T03:37:11;2.60;99.90
44170;DHT22;29836;52.286;9.576;2022-12-07T03:42:33;2.60;99.90
44170;DHT22;29836;52.286;9.576;2022-12-07T03:45:00;2.60;99.90
44170;DHT22;29836;52.286;9.576;2022-12-07T03:47:46;2.60;99.90
44170;DHT22;29836;52.286;9.576;2022-12-07T03:50:26;2.60;99.90
44170;DHT22;29836;52.286;9.576;2022-12-07T03:52:57;2.70;99.90
44170;DHT22;29836;52.286;9.576;2022-12-07T03:55:29;2.70;99.90
44170;DHT22;29836;52.286;9.576;2022-12-07T03:58:00;2.60;99.90
44170;DHT22;29836;52.286;9.576;2022-12-07T04:00:27;2.70;99.90
44170;DHT22;29836;52.286;9.576;2022-12-07T04:02:54;2.70;99.90
44170;DHT22;29836;52.286;9.576;2022-12-07T04:05:20;2.80;99.90
44170;DHT22;29836;52.286;9.576;2022-12-07T04:07:46;2.80;99.90
44170;DHT22;29836;52.286;9.576;2022-12-07T04:10:11;2.80;99.90
44170;DHT22;29836;52.286;9.576;2022-12-07T04:12:37;2.90;99.90
44170;DHT22;29836;52.286;9.576;2022-12-07T04:15:03;2.90;99.90
44170;DHT22;29836;52.286;9.576;2022-12-07T04:17:29;2.90;99.90
44170;DHT22;29836;52.286;9.576;2022-12-07T04:19:55;2.90;99.90
44170;DHT22;29836;52.286;9.576;2022-12-07T04:22:20;2.90;99.90
44170;DHT22;29836;52.286;9.576;2022-12-07T04:24:46;2.90;99.90
44170;DHT22;29836;52.286;9.576;2022-12-07T04:27:12;3.00;99.90
44170;DHT22;29836;52.286;9.576;2022-12-07T04:29:37;3.00;99.90
44170;DHT22;29836;52.286;9.576;2022-12-07T04:32:03;3.00;99.90
44170;DHT22;29836;52.286;9.576;2022-12-07T04:34:29;3.10;99.90
44170;DHT22;29836;52.286;9.576;2022-12-07T04:36:54;3.10;99.90
44170;DHT22;29836;52.286;9.576;2022-12-07T04:39:26;3.10;99.90
44170;DHT22;29836;52.286;9.576;2022-12-07T04:41:52;3.10;99.90
44170;DHT22;29836;52.286;9.576;2022-12-07T04:44:18;3.10;99.90
44170;DHT22;29836;52.286;9.576;2022-12-07T04:46:44;3.10;99.90
44170;DHT22;29836;52.286;9.576;2022-12-07T04:49:10;3.00;99.90
44170;DHT22;29836;52.286;9.576;2022-12-07T04:51:36;2.90;99.90
44170;DHT22;29836;52.286;9.576;2022-12-07T04:54:02;2.90;99.90
44170;DHT22;29836;52.286;9.576;2022-12-07T04:56:28;2.80;99.90
44170;DHT22;29836;52.286;9.576;2022-12-07T04:58:54;2.70;99.90
44170;DHT22;29836;52.286;9.576;2022-12-07T05:01:21;2.80;99.90
44170;DHT22;29836;52.286;9.576;2022-12-07T05:03:47;2.80;99.90
44170;DHT22;29836;52.286;9.576;2022-12-07T05:06:13;2.80;99.90
44170;DHT22;29836;52.286;9.576;2022-12-07T05:08:40;2.80;99.90
44170;DHT22;29836;52.286;9.576;2022-12-07T05:11:06;2.80;99.90
44170;DHT22;29836;52.286;9.576;2022-12-07T05:13:32;2.90;99.90
44170;DHT22;29836;52.286;9.576;2022-12-07T05:15:58;2.90;99.90
44170;DHT22;29836;52.286;9.576;2022-12-07T05:18:24;3.00;99.90
44170;DHT22;29836;52.286;9.576;2022-12-07T05:20:49;3.10;99.90
44170;DHT22;29836;52.286;9.576;2022-12-07T05:23:16;3.10;99.90
44170;DHT22;29836;52.286;9.576;2022-12-07T05:25:42;3.10;99.90
44170;DHT22;29836;52.286;9.576;2022-12-07T05:28:08;3.10;99.90
44170;DHT22;29836;52.286;9.576;2022-12-07T05:30:33;3.10;99.90
44170;DHT22;29836;52.286;9.576;2022-12-07T05:32:59;3.20;99.90
44170;DHT22;29836;52.286;9.576;2022-12-07T05:35:25;3.10;99.90
44170;DHT22;29836;52.286;9.576;2022-12-07T05:37:50;3.10;99.90
44170;DHT22;29836;52.286;9.576;2022-12-07T05:40:16;3.20;99.90
44170;DHT22;29836;52.286;9.576;2022-12-07T05:42:42;3.20;99.90
44170;DHT22;29836;52.286;9.576;2022-12-07T05:45:09;3.10;99.90
44170;DHT22;29836;52.286;9.576;2022-12-07T05:47:35;3.20;99.90
44170;DHT22;29836;52.286;9.576;2022-12-07T05:50:01;3.10;99.90
44170;DHT22;29836;52.286;9.576;2022-12-07T05:52:27;3.10;99.90
44170;DHT22;29836;52.286;9.576;2022-12-07T05:54:52;3.10;99.90
44170;DHT22;29836;52.286;9.576;2022-12-07T05:57:18;3.10;99.90
44170;DHT22;29836;52.286;9.576;2022-12-07T05:59:44;3.10;99.90
44170;DHT22;29836;52.286;9.576;2022-12-07T06:02:12;3.10;99.90
44170;DHT22;29836;52.286;9.576;2022-12-07T06:04:41;3.10;99.90
44170;DHT22;29836;52.286;9.576;2022-12-07T06:07:07;3.10;99.90
44170;DHT22;29836;52.286;9.576;2022-12-07T06:09:33;3.10;99.90
44170;DHT22;29836;52.286;9.576;2022-12-07T06:12:00;3.00;99.90
44170;DHT22;29836;52.286;9.576;2022-12-07T06:14:44;3.00;99.90
44170;DHT22;29836;52.286;9.576;2022-12-07T06:17:11;3.00;99.90
44170;DHT22;29836;52.286;9.576;2022-12-07T06:19:37;3.00;99.90
44170;DHT22;29836;52.286;9.576;2022-12-07T06:22:03;2.90;99.90
44170;DHT22;29836;52.286;9.576;2022-12-07T06:24:30;2.90;99.90
44170;DHT22;29836;52.286;9.576;2022-12-07T06:26:55;2.90;99.90
44170;DHT22;29836;52.286;9.576;2022-12-07T06:29:21;3.00;99.90
44170;DHT22;29836;52.286;9.576;2022-12-07T06:31:47;3.00;99.90
44170;DHT22;29836;52.286;9.576;2022-12-07T06:34:15;3.00;99.90
44170;DHT22;29836;52.286;9.576;2022-12-07T06:36:41;3.00;99.90
44170;DHT22;29836;52.286;9.576;2022-12-07T06:39:07;3.00;99.90
44170;DHT22;29836;52.286;9.576;2022-12-07T06:41:35;3.00;99.90
44170;DHT22;29836;52.286;9.576;2022-12-07T06:44:01;3.00;99.90
44170;DHT22;29836;52.286;9.576;2022-12-07T06:46:27;2.90;99.90
44170;DHT22;29836;52.286;9.576;2022-12-07T06:48:52;2.90;99.90
44170;DHT22;29836;52.286;9.576;2022-12-07T06:51:18;2.90;99.90
44170;DHT22;29836;52.286;9.576;2022-12-07T06:53:44;2.90;99.90
44170;DHT22;29836;52.286;9.576;2022-12-07T06:56:09;2.90;99.90
44170;DHT22;29836;52.286;9.576;2022-12-07T06:58:35;2.90;99.90
44170;DHT22;29836;52.286;9.576;2022-12-07T07:01:01;2.80;99.90
44170;DHT22;29836;52.286;9.576;2022-12-07T07:03:26;2.70;99.90
44170;DHT22;29836;52.286;9.576;2022-12-07T07:05:52;2.70;99.90
44170;DHT22;29836;52.286;9.576;2022-12-07T07:08:17;2.60;99.90
44170;DHT22;29836;52.286;9.576;2022-12-07T07:10:43;2.40;99.90
44170;DHT22;29836;52.286;9.576;2022-12-07T07:13:09;2.30;99.90
44170;DHT22;29836;52.286;9.576;2022-12-07T07:15:34;2.30;99.90
44170;DHT22;29836;52.286;9.576;2022-12-07T07:18:02;2.30;99.90
44170;DHT22;29836;52.286;9.576;2022-12-07T07:20:29;2.20;99.90
44170;DHT22;29836;52.286;9.576;2022-12-07T07:22:55;2.20;99.90
44170;DHT22;29836;52.286;9.576;2022-12-07T07:25:21;2.20;99.90
44170;DHT22;29836;52.286;9.576;2022-12-07T07:27:47;2.30;99.90
44170;DHT22;29836;52.286;9.576;2022-12-07T07:30:13;2.30;99.90
44170;DHT22;29836;52.286;9.576;2022-12-07T07:32:38;2.30;99.90
44170;DHT22;29836;52.286;9.576;2022-12-07T07:35:04;2.40;99.90
44170;DHT22;29836;52.286;9.576;2022-12-07T07:37:30;2.40;99.90
44170;DHT22;29836;52.286;9.576;2022-12-07T07:39:55;2.40;99.90
44170;DHT22;29836;52.286;9.576;2022-12-07T07:42:21;2.40;99.90
44170;DHT22;29836;52.286;9.576;2022-12-07T07:44:47;2.40;99.90
44170;DHT22;29836;52.286;9.576;2022-12-07T07:47:13;2.40;99.90
44170;DHT22;29836;52.286;9.576;2022-12-07T07:49:38;2.40;99.90
44170;DHT22;29836;52.286;9.576;2022-12-07T07:52:05;2.40;99.90
44170;DHT22;29836;52.286;9.576;2022-12-07T07:54:31;2.40;99.90
44170;DHT22;29836;52.286;9.576;2022-12-07T07:56:57;2.50;99.90
44170;DHT22;29836;52.286;9.576;2022-12-07T07:59:23;2.60;99.90
44170;DHT22;29836;52.286;9.576;2022-12-07T08:01:48;2.60;99.90
44170;DHT22;29836;52.286;9.576;2022-12-07T08:04:14;2.60;99.90
44170;DHT22;29836;52.286;9.576;2022-12-07T08:06:39;2.60;99.90
44170;DHT22;29836;52.286;9.576;2022-12-07T08:09:07;2.60;99.90
44170;DHT22;29836;52.286;9.576;2022-12-07T08:11:33;2.70;99.90
44170;DHT22;29836;52.286;9.576;2022-12-07T08:13:59;2.70;99.90
44170;DHT22;29836;52.286;9.576;2022-12-07T08:16:25;2.70;99.90
44170;DHT22;29836;52.286;9.576;2022-12-07T08:18:51;2.80;99.90
44170;DHT22;29836;52.286;9.576;2022-12-07T08:21:16;2.90;99.90
44170;DHT22;29836;52.286;9.576;2022-12-07T08:23:43;3.00;99.90
44170;DHT22;29836;52.286;9.576;2022-12-07T08:26:14;3.00;99.90
44170;DHT22;29836;52.286;9.576;2022-12-07T08:28:40;3.10;99.90
44170;DHT22;29836;52.286;9.576;2022-12-07T08:31:15;3.10;99.90
44170;DHT22;29836;52.286;9.576;2022-12-07T08:33:41;3.20;99.90
44170;DHT22;29836;52.286;9.576;2022-12-07T08:36:08;3.20;99.90
44170;DHT22;29836;52.286;9.576;2022-12-07T08:38:35;3.30;99.90
44170;DHT22;29836;52.286;9.576;2022-12-07T08:41:01;3.40;99.90
44170;DHT22;29836;52.286;9.576;2022-12-07T08:43:27;3.40;99.90
44170;DHT22;29836;52.286;9.576;2022-12-07T08:46:07;3.50;99.90
44170;DHT22;29836;52.286;9.576;2022-12-07T08:48:35;3.50;99.90
44170;DHT22;29836;52.286;9.576;2022-12-07T08:51:01;3.50;99.90
44170;DHT22;29836;52.286;9.576;2022-12-07T08:53:27;3.40;99.90
44170;DHT22;29836;52.286;9.576;2022-12-07T08:55:53;3.40;99.90
44170;DHT22;29836;52.286;9.576;2022-12-07T08:58:19;3.40;99.90
44170;DHT22;29836;52.286;9.576;2022-12-07T09:00:44;3.40;99.90
44170;DHT22;29836;52.286;9.576;2022-12-07T09:03:10;3.40;99.90
44170;DHT22;29836;52.286;9.576;2022-12-07T09:05:36;3.50;99.90
44170;DHT22;29836;52.286;9.576;2022-12-07T09:08:02;3.70;99.90
44170;DHT22;29836;52.286;9.576;2022-12-07T09:10:28;3.80;99.90
44170;DHT22;29836;52.286;9.576;2022-12-07T09:12:54;3.90;99.90
44170;DHT22;29836;52.286;9.576;2022-12-07T09:15:20;3.90;99.90
44170;DHT22;29836;52.286;9.576;2022-12-07T09:17:45;3.80;99.90
44170;DHT22;29836;52.286;9.576;2022-12-07T09:20:11;3.70;99.90
44170;DHT22;29836;52.286;9.576;2022-12-07T09:22:37;3.50;99.90
44170;DHT22;29836;52.286;9.576;2022-12-07T09:25:03;3.40;99.90
44170;DHT22;29836;52.286;9.576;2022-12-07T09:27:30;3.40;99.90
44170;DHT22;29836;52.286;9.576;2022-12-07T09:29:55;3.40;99.90
44170;DHT22;29836;52.286;9.576;2022-12-07T09:32:21;3.30;99.90
44170;DHT22;29836;52.286;9.576;2022-12-07T09:34:47;3.20;99.90
44170;DHT22;29836;52.286;9.576;2022-12-07T09:37:13;3.20;99.90
44170;DHT22;29836;52.286;9.576;2022-12-07T09:39:39;3.30;99.90
44170;DHT22;29836;52.286;9.576;2022-12-07T09:42:06;3.40;99.90
44170;DHT22;29836;52.286;9.576;2022-12-07T09:44:32;3.60;99.90
44170;DHT22;29836;52.286;9.576;2022-12-07T09:46:59;3.70;99.90
44170;DHT22;29836;52.286;9.576;2022-12-07T09:49:28;3.70;99.90
44170;DHT22;29836;52.286;9.576;2022-12-07T09:54:36;3.80;99.90
44170;DHT22;29836;52.286;9.576;2022-12-07T09:57:02;3.90;99.90
44170;DHT22;29836;52.286;9.576;2022-12-07T09:59:28;3.80;99.90
44170;DHT22;29836;52.286;9.576;2022-12-07T10:01:55;3.80;99.90
44170;DHT22;29836;52.286;9.576;2022-12-07T10:04:26;3.80;99.90
44170;DHT22;29836;52.286;9.576;2022-12-07T10:06:53;4.30;99.90
44170;DHT22;29836;52.286;9.576;2022-12-07T10:09:21;4.80;99.90
44170;DHT22;29836;52.286;9.576;2022-12-07T10:12:06;4.70;99.90
44170;DHT22;29836;52.286;9.576;2022-12-07T10:14:36;4.60;99.90
44170;DHT22;29836;52.286;9.576;2022-12-07T10:17:05;4.50;99.90
44170;DHT22;29836;52.286;9.576;2022-12-07T10:19:48;4.60;99.90
44170;DHT22;29836;52.286;9.576;2022-12-07T10:22:17;4.50;99.90
44170;DHT22;29836;52.286;9.576;2022-12-07T10:24:46;4.50;99.90
44170;DHT22;29836;52.286;9.576;2022-12-07T10:27:26;4.50;99.90
44170;DHT22;29836;52.286;9.576;2022-12-07T10:29:54;4.50;99.90
44170;DHT22;29836;52.286;9.576;2022-12-07T10:34:45;4.40;99.90
44170;DHT22;29836;52.286;9.576;2022-12-07T10:37:17;4.40;99.90
44170;DHT22;29836;52.286;9.576;2022-12-07T10:44:48;4.30;99.90
44170;DHT22;29836;52.286;9.576;2022-12-07T10:47:34;4.30;99.90
44170;DHT22;29836;52.286;9.576;2022-12-07T10:58:44;5.00;99.90
44170;DHT22;29836;52.286;9.576;2022-12-07T11:01:33;5.40;99.90
44170;DHT22;29836;52.286;9.576;2022-12-07T11:09:50;5.30;99.90
44170;DHT22;29836;52.286;9.576;2022-12-07T11:15:32;5.20;99.90
44170;DHT22;29836;52.286;9.576;2022-12-07T11:18:06;5.20;99.90
44170;DHT22;29836;52.286;9.576;2022-12-07T11:23:37;5.30;99.90
44170;DHT22;29836;52.286;9.576;2022-12-07T11:34:15;5.00;99.90
44170;DHT22;29836;52.286;9.576;2022-12-07T11:36:48;4.90;99.90
44170;DHT22;29836;52.286;9.576;2022-12-07T11:41:45;4.80;99.90
44170;DHT22;29836;52.286;9.576;2022-12-07T11:44:30;4.80;99.90
44170;DHT22;29836;52.286;9.576;2022-12-07T11:47:05;4.90;99.90
44170;DHT22;29836;52.286;9.576;2022-12-07T11:52:45;5.20;99.90
44170;DHT22;29836;52.286;9.576;2022-12-07T11:58:01;5.30;99.90
44170;DHT22;29836;52.286;9.576;2022-12-07T12:00:28;5.40;99.90
44170;DHT22;29836;52.286;9.576;2022-12-07T12:05:24;5.40;99.90
44170;DHT22;29836;52.286;9.576;2022-12-07T12:08:03;5.40;99.90
44170;DHT22;29836;52.286;9.576;2022-12-07T12:11:02;5.20;99.90
44170;DHT22;29836;52.286;9.576;2022-12-07T12:22:03;4.60;99.90
44170;DHT22;29836;52.286;9.576;2022-12-07T12:24:31;4.60;99.90
44170;DHT22;29836;52.286;9.576;2022-12-07T12:27:07;4.70;99.90
44170;DHT22;29836;52.286;9.576;2022-12-07T12:29:39;4.80;99.90
44170;DHT22;29836;52.286;9.576;2022-12-07T12:32:17;4.80;99.90
44170;DHT22;29836;52.286;9.576;2022-12-07T12:37:39;5.10;99.90
44170;DHT22;29836;52.286;9.576;2022-12-07T12:42:50;5.20;99.90
44170;DHT22;29836;52.286;9.576;2022-12-07T12:45:27;5.10;99.90
44170;DHT22;29836;52.286;9.576;2022-12-07T12:47:58;5.20;99.90
44170;DHT22;29836;52.286;9.576;2022-12-07T12:53:12;5.10;99.90
44170;DHT22;29836;52.286;9.576;2022-12-07T13:03:54;4.70;99.90
44170;DHT22;29836;52.286;9.576;2022-12-07T13:06:34;4.70;99.90
44170;DHT22;29836;52.286;9.576;2022-12-07T13:09:01;4.70;99.90
44170;DHT22;29836;52.286;9.576;2022-12-07T13:11:41;4.70;99.90
44170;DHT22;29836;52.286;9.576;2022-12-07T13:17:02;4.80;99.90
44170;DHT22;29836;52.286;9.576;2022-12-07T13:19:53;4.80;99.90
44170;DHT22;29836;52.286;9.576;2022-12-07T13:25:03;4.70;99.90
44170;DHT22;29836;52.286;9.576;2022-12-07T13:27:30;4.60;99.90
44170;DHT22;29836;52.286;9.576;2022-12-07T13:29:59;4.50;99.90
44170;DHT22;29836;52.286;9.576;2022-12-07T13:32:28;4.50;99.90
44170;DHT22;29836;52.286;9.576;2022-12-07T13:34:55;4.50;99.90
44170;DHT22;29836;52.286;9.576;2022-12-07T13:37:25;4.50;99.90
44170;DHT22;29836;52.286;9.576;2022-12-07T13:40:00;4.40;99.90
44170;DHT22;29836;52.286;9.576;2022-12-07T13:44:55;4.30;99.90
44170;DHT22;29836;52.286;9.576;2022-12-07T13:47:43;4.30;99.90
44170;DHT22;29836;52.286;9.576;2022-12-07T13:50:27;4.30;99.90
44170;DHT22;29836;52.286;9.576;2022-12-07T13:53:00;4.30;99.90
44170;DHT22;29836;52.286;9.576;2022-12-07T13:55:30;4.30;99.90
44170;DHT22;29836;52.286;9.576;2022-12-07T13:57:56;4.30;99.90
44170;DHT22;29836;52.286;9.576;2022-12-07T14:00:26;4.20;99.90
44170;DHT22;29836;52.286;9.576;2022-12-07T14:03:20;4.10;99.90
44170;DHT22;29836;52.286;9.576;2022-12-07T14:05:43;4.10;99.90
44170;DHT22;29836;52.286;9.576;2022-12-07T14:10:52;4.10;99.90
44170;DHT22;29836;52.286;9.576;2022-12-07T14:18:41;4.10;99.90
44170;DHT22;29836;52.286;9.576;2022-12-07T14:21:16;4.00;99.90
44170;DHT22;29836;52.286;9.576;2022-12-07T14:23:44;4.00;99.90
44170;DHT22;29836;52.286;9.576;2022-12-07T14:26:14;4.00;99.90
44170;DHT22;29836;52.286;9.576;2022-12-07T14:28:41;4.00;99.90
44170;DHT22;29836;52.286;9.576;2022-12-07T14:31:12;4.00;99.90
44170;DHT22;29836;52.286;9.576;2022-12-07T14:33:39;3.90;99.90
44170;DHT22;29836;52.286;9.576;2022-12-07T14:36:04;3.90;99.90
44170;DHT22;29836;52.286;9.576;2022-12-07T14:38:30;3.90;99.90
44170;DHT22;29836;52.286;9.576;2022-12-07T14:40:56;3.80;99.90
44170;DHT22;29836;52.286;9.576;2022-12-07T14:43:45;3.80;99.90
44170;DHT22;29836;52.286;9.576;2022-12-07T14:46:11;3.80;99.90
44170;DHT22;29836;52.286;9.576;2022-12-07T14:48:36;3.70;99.90
44170;DHT22;29836;52.286;9.576;2022-12-07T14:51:02;3.60;99.90
44170;DHT22;29836;52.286;9.576;2022-12-07T14:53:34;3.60;99.90
44170;DHT22;29836;52.286;9.576;2022-12-07T14:56:00;3.50;99.90
44170;DHT22;29836;52.286;9.576;2022-12-07T14:58:25;3.40;99.90
44170;DHT22;29836;52.286;9.576;2022-12-07T15:00:52;3.40;99.90
44170;DHT22;29836;52.286;9.576;2022-12-07T15:03:18;3.30;99.90
44170;DHT22;29836;52.286;9.576;2022-12-07T15:05:44;3.20;99.90
44170;DHT22;29836;52.286;9.576;2022-12-07T15:08:11;3.10;99.90
44170;DHT22;29836;52.286;9.576;2022-12-07T15:10:37;3.10;99.90
44170;DHT22;29836;52.286;9.576;2022-12-07T15:13:04;3.00;99.90
44170;DHT22;29836;52.286;9.576;2022-12-07T15:15:49;2.90;99.90
44170;DHT22;29836;52.286;9.576;2022-12-07T15:18:16;2.80;99.90
44170;DHT22;29836;52.286;9.576;2022-12-07T15:20:42;2.80;99.90
44170;DHT22;29836;52.286;9.576;2022-12-07T15:23:08;2.80;99.90
44170;DHT22;29836;52.286;9.576;2022-12-07T15:25:34;2.80;99.90
44170;DHT22;29836;52.286;9.576;2022-12-07T15:28:00;2.70;99.90
44170;DHT22;29836;52.286;9.576;2022-12-07T15:30:25;2.70;99.90
44170;DHT22;29836;52.286;9.576;2022-12-07T15:32:52;2.70;99.90
44170;DHT22;29836;52.286;9.576;2022-12-07T15:35:18;2.60;99.90
44170;DHT22;29836;52.286;9.576;2022-12-07T15:37:44;2.60;99.90
44170;DHT22;29836;52.286;9.576;2022-12-07T15:40:10;2.50;99.90
44170;DHT22;29836;52.286;9.576;2022-12-07T15:42:36;2.50;99.90
44170;DHT22;29836;52.286;9.576;2022-12-07T15:45:03;2.50;99.90
44170;DHT22;29836;52.286;9.576;2022-12-07T15:47:29;2.50;99.90
44170;DHT22;29836;52.286;9.576;2022-12-07T15:49:54;2.40;99.90
44170;DHT22;29836;52.286;9.576;2022-12-07T15:52:21;2.30;99.90
44170;DHT22;29836;52.286;9.576;2022-12-07T15:54:46;2.30;99.90
44170;DHT22;29836;52.286;9.576;2022-12-07T15:57:13;2.20;99.90
44170;DHT22;29836;52.286;9.576;2022-12-07T15:59:39;2.20;99.90
44170;DHT22;29836;52.286;9.576;2022-12-07T16:02:04;2.10;99.90
44170;DHT22;29836;52.286;9.576;2022-12-07T16:04:30;2.20;99.90
44170;DHT22;29836;52.286;9.576;2022-12-07T16:06:55;2.20;99.90
44170;DHT22;29836;52.286;9.576;2022-12-07T16:09:21;2.20;99.90
44170;DHT22;29836;52.286;9.576;2022-12-07T16:11:47;2.20;99.90
44170;DHT22;29836;52.286;9.576;2022-12-07T16:14:13;2.20;99.90
44170;DHT22;29836;52.286;9.576;2022-12-07T16:16:38;2.20;99.90
44170;DHT22;29836;52.286;9.576;2022-12-07T16:19:06;2.20;99.90
44170;DHT22;29836;52.286;9.576;2022-12-07T16:21:33;2.20;99.90
44170;DHT22;29836;52.286;9.576;2022-12-07T16:23:59;2.20;99.90
44170;DHT22;29836;52.286;9.576;2022-12-07T16:26:25;2.10;99.90
44170;DHT22;29836;52.286;9.576;2022-12-07T16:28:52;2.20;99.90
44170;DHT22;29836;52.286;9.576;2022-12-07T16:31:20;2.20;99.90
44170;DHT22;29836;52.286;9.576;2022-12-07T16:33:46;2.20;99.90
44170;DHT22;29836;52.286;9.576;2022-12-07T16:36:13;2.20;99.90
44170;DHT22;29836;52.286;9.576;2022-12-07T16:38:41;2.20;99.90
44170;DHT22;29836;52.286;9.576;2022-12-07T16:41:08;2.20;99.90
44170;DHT22;29836;52.286;9.576;2022-12-07T16:43:34;2.30;99.90
44170;DHT22;29836;52.286;9.576;2022-12-07T16:46:00;2.20;99.90
44170;DHT22;29836;52.286;9.576;2022-12-07T16:48:26;2.20;99.90
44170;DHT22;29836;52.286;9.576;2022-12-07T16:50:52;2.10;99.90
44170;DHT22;29836;52.286;9.576;2022-12-07T16:53:22;2.00;99.90
44170;DHT22;29836;52.286;9.576;2022-12-07T16:55:48;2.00;99.90
44170;DHT22;29836;52.286;9.576;2022-12-07T16:58:15;2.00;99.90
44170;DHT22;29836;52.286;9.576;2022-12-07T17:00:42;2.00;99.90
44170;DHT22;29836;52.286;9.576;2022-12-07T17:03:08;1.90;99.90
44170;DHT22;29836;52.286;9.576;2022-12-07T17:05:36;1.90;99.90
44170;DHT22;29836;52.286;9.576;2022-12-07T17:08:02;1.90;99.90
44170;DHT22;29836;52.286;9.576;2022-12-07T17:10:28;1.80;99.90
44170;DHT22;29836;52.286;9.576;2022-12-07T17:12:54;1.80;99.90
44170;DHT22;29836;52.286;9.576;2022-12-07T17:15:19;1.80;99.90
44170;DHT22;29836;52.286;9.576;2022-12-07T17:17:53;1.70;99.90
44170;DHT22;29836;52.286;9.576;2022-12-07T17:20:20;1.70;99.90
44170;DHT22;29836;52.286;9.576;2022-12-07T17:22:47;1.70;99.90
44170;DHT22;29836;52.286;9.576;2022-12-07T17:25:12;1.70;99.90
44170;DHT22;29836;52.286;9.576;2022-12-07T17:27:38;1.70;99.90
44170;DHT22;29836;52.286;9.576;2022-12-07T17:30:05;1.80;99.90
44170;DHT22;29836;52.286;9.576;2022-12-07T17:32:31;1.90;99.90
44170;DHT22;29836;52.286;9.576;2022-12-07T17:34:56;1.80;99.90
44170;DHT22;29836;52.286;9.576;2022-12-07T17:37:22;1.90;99.90
44170;DHT22;29836;52.286;9.576;2022-12-07T17:39:48;1.90;99.90
44170;DHT22;29836;52.286;9.576;2022-12-07T17:42:14;2.00;99.90
44170;DHT22;29836;52.286;9.576;2022-12-07T17:44:58;2.10;99.90